createdAt,value
2019-06-10T00:01:41.481Z,96.40
2019-06-10T00:04:12.353Z,96.30
2019-06-10T00:06:42.241Z,96.80
2019-06-10T00:09:11.946Z,95.50
2019-06-10T00:11:41.554Z,95.50
2019-06-10T00:14:11.063Z,95.50
2019-06-10T00:16:41.645Z,95.10
2019-06-10T00:19:12.688Z,95.10
2019-06-10T00:21:42.272Z,95.30
2019-06-10T00:24:11.885Z,95.20
2019-06-10T00:26:41.446Z,95.50
2019-06-10T00:29:11.964Z,96.40
2019-06-10T00:31:41.802Z,96.20
2019-06-10T00:34:12.457Z,95.50
2019-06-10T00:36:42.322Z,94.90
2019-06-10T00:39:13.440Z,95.60
2019-06-10T00:41:43.180Z,96.40
2019-06-10T00:44:12.984Z,96.80
2019-06-10T00:46:42.401Z,97.00
2019-06-10T00:49:14.351Z,96.70
2019-06-10T00:51:42.766Z,96.70
2019-06-10T00:54:15.090Z,96.60
2019-06-10T00:56:43.223Z,97.10
2019-06-10T00:59:15.102Z,96.30
2019-06-10T01:01:43.619Z,96.10
2019-06-10T01:04:16.210Z,96.60
2019-06-10T01:06:45.028Z,96.20
2019-06-10T01:09:14.862Z,97.00
2019-06-10T01:11:44.567Z,97.00
2019-06-10T01:14:15.458Z,97.30
2019-06-10T01:19:47.076Z,96.70
2019-06-10T01:22:17.329Z,96.20
2019-06-10T01:24:46.776Z,96.80
2019-06-10T01:27:16.164Z,96.30
2019-06-10T01:29:45.507Z,96.40
2019-06-10T01:32:15.130Z,95.80
2019-06-10T01:34:44.508Z,95.80
2019-06-10T01:37:14.765Z,96.20
2019-06-10T01:39:44.926Z,96.30
2019-06-10T01:42:15.608Z,96.30
2019-06-10T01:44:45.282Z,96.80
2019-06-10T01:47:15.776Z,96.70
2019-06-10T01:49:45.619Z,97.00
2019-06-10T01:52:16.317Z,97.30
2019-06-10T01:54:46.018Z,97.30
2019-06-10T01:57:16.647Z,97.30
2019-06-10T01:59:46.434Z,97.50
2019-06-10T02:02:23.417Z,97.40
2019-06-10T02:04:51.819Z,96.90
2019-06-10T02:07:23.066Z,97.00
2019-06-10T02:09:52.635Z,97.00
2019-06-10T02:12:24.194Z,96.80
2019-06-10T02:14:53.095Z,96.50
2019-06-10T02:17:23.947Z,96.00
2019-06-10T02:19:53.504Z,96.50
2019-06-10T02:22:24.205Z,96.00
2019-06-10T02:24:53.912Z,96.40
2019-06-10T02:27:23.318Z,96.40
2019-06-10T02:29:53.670Z,96.10
2019-06-10T02:32:31.622Z,96.10
2019-06-10T02:35:07.311Z,96.00
2019-06-10T02:37:31.948Z,96.10
2019-06-10T02:39:57.206Z,96.60
2019-06-10T02:42:30.911Z,97.10
2019-06-10T02:45:03.309Z,97.40
2019-06-10T02:47:37.012Z,97.30
2019-06-10T02:50:07.802Z,97.20
2019-06-10T02:52:38.081Z,97.50
2019-06-10T02:55:05.494Z,97.50
2019-06-10T02:57:39.669Z,97.40
2019-06-10T03:00:19.850Z,97.50
2019-06-10T03:02:40.110Z,97.20
2019-06-10T03:05:14.279Z,97.90
2019-06-10T03:07:44.608Z,97.90
2019-06-10T03:10:16.076Z,97.80
2019-06-10T03:12:45.584Z,97.50
2019-06-10T03:15:15.723Z,97.10
2019-06-10T03:17:45.134Z,97.20
2019-06-10T03:20:14.439Z,97.20
2019-06-10T03:22:43.780Z,97.70
2019-06-10T03:25:13.266Z,97.80
2019-06-10T03:27:42.687Z,97.80
2019-06-10T03:30:17.133Z,97.60
2019-06-10T03:32:46.757Z,97.50
2019-06-10T03:35:14.936Z,97.00
2019-06-10T03:37:44.246Z,97.30
2019-06-10T03:40:13.903Z,96.90
2019-06-10T03:42:43.349Z,96.40
2019-06-10T03:45:13.019Z,96.50
2019-06-10T03:47:42.817Z,96.60
2019-06-10T03:50:13.254Z,97.40
2019-06-10T03:52:43.226Z,98.10
2019-06-10T03:55:13.060Z,97.80
2019-06-10T03:57:42.480Z,97.80
2019-06-10T04:00:13.991Z,97.70
2019-06-10T04:02:43.598Z,98.00
2019-06-10T04:05:13.372Z,98.10
2019-06-10T04:07:42.953Z,98.00
2019-06-10T04:10:12.935Z,98.30
2019-06-10T04:12:43.501Z,98.30
2019-06-10T04:15:13.354Z,98.30
2019-06-10T04:17:42.931Z,98.30
2019-06-10T04:20:15.438Z,98.30
2019-06-10T04:22:44.463Z,97.70
2019-06-10T04:25:14.198Z,98.00
2019-06-10T04:27:43.487Z,98.30
2019-06-10T04:30:16.336Z,97.60
2019-06-10T04:32:44.083Z,97.20
2019-06-10T04:35:13.406Z,97.70
2019-06-10T04:37:43.003Z,97.80
2019-06-10T04:40:32.924Z,98.30
2019-06-10T04:43:02.986Z,97.50
2019-06-10T04:45:32.565Z,98.00
2019-06-10T04:48:03.026Z,97.90
2019-06-10T04:50:41.939Z,97.10
2019-06-10T04:53:03.646Z,97.50
2019-06-10T04:55:32.977Z,97.80
2019-06-10T04:58:02.603Z,98.30
2019-06-10T05:00:33.276Z,98.30
2019-06-10T05:03:02.964Z,98.30
2019-06-10T05:05:32.923Z,98.00
2019-06-10T05:08:02.787Z,98.00
2019-06-10T05:10:33.256Z,97.00
2019-06-10T05:13:03.214Z,97.20
2019-06-10T05:15:34.882Z,97.50
2019-06-10T05:18:03.658Z,97.30
2019-06-10T05:20:51.124Z,97.70
2019-06-10T05:23:04.095Z,97.50
2019-06-10T05:25:33.383Z,98.30
2019-06-10T05:28:03.789Z,98.00
2019-06-10T05:30:34.066Z,97.00
2019-06-10T05:33:03.641Z,96.70
2019-06-10T05:35:33.962Z,96.40
2019-06-10T05:38:03.694Z,96.70
2019-06-10T05:40:34.291Z,97.10
2019-06-10T05:43:03.905Z,98.10
2019-06-10T05:45:35.075Z,97.70
2019-06-10T05:48:04.405Z,97.20
2019-06-10T05:50:35.015Z,96.60
2019-06-10T05:53:04.580Z,97.00
2019-06-10T05:55:35.180Z,97.20
2019-06-10T05:58:05.902Z,97.00
2019-06-10T06:00:35.589Z,96.50
2019-06-10T06:03:05.086Z,96.60
2019-06-10T06:05:36.088Z,96.70
2019-06-10T06:08:12.573Z,96.00
2019-06-10T06:10:43.048Z,95.30
2019-06-10T06:13:12.837Z,94.80
2019-06-10T06:15:43.366Z,95.20
2019-06-10T06:18:14.119Z,95.30
2019-06-10T06:20:43.761Z,95.20
2019-06-10T06:23:13.293Z,94.60
2019-06-10T06:25:46.290Z,94.30
2019-06-10T06:28:16.172Z,93.70
2019-06-10T06:30:44.973Z,94.20
2019-06-10T06:33:14.306Z,94.00
2019-06-10T06:35:46.576Z,93.50
2019-06-10T06:38:14.751Z,93.60
2019-06-10T06:40:45.025Z,93.00
2019-06-10T06:43:14.547Z,92.50
2019-06-10T06:45:43.911Z,92.70
2019-06-10T06:48:13.209Z,92.90
2019-06-10T06:51:00.137Z,93.20
2019-06-10T06:53:25.632Z,93.80
2019-06-10T06:55:44.815Z,94.60
2019-06-10T06:58:14.170Z,94.80
2019-06-10T07:01:00.485Z,95.40
2019-06-10T07:03:14.492Z,95.10
2019-06-10T07:05:45.450Z,94.70
2019-06-10T07:08:16.915Z,94.30
2019-06-10T07:10:47.436Z,93.80
2019-06-10T07:13:16.837Z,94.00
2019-06-10T07:15:47.553Z,93.80
2019-06-10T07:18:17.031Z,93.50
2019-06-10T07:20:46.358Z,93.60
2019-06-10T07:23:15.954Z,93.20
2019-06-10T07:25:47.537Z,92.60
2019-06-10T07:28:18.184Z,92.80
2019-06-10T07:30:52.745Z,93.30
2019-06-10T07:33:18.606Z,93.50
2019-06-10T07:36:03.186Z,93.10
2019-06-10T07:38:34.723Z,93.10
2019-06-10T07:41:02.963Z,93.30
2019-06-10T07:43:37.123Z,93.40
2019-06-10T07:46:03.962Z,93.30
2019-06-10T07:48:35.012Z,93.40
2019-06-10T07:51:05.363Z,93.40
2019-06-10T07:53:36.543Z,93.00
2019-06-10T07:56:05.755Z,92.90
2019-06-10T07:58:37.219Z,92.90
2019-06-10T08:01:07.219Z,92.90
2019-06-10T08:03:55.459Z,92.70
2019-06-10T08:06:24.870Z,92.80
2019-06-10T08:08:55.703Z,93.30
2019-06-10T08:11:25.019Z,92.10
2019-06-10T08:13:54.336Z,92.30
2019-06-10T08:16:23.916Z,92.00
2019-06-10T08:19:20.918Z,90.90
2019-06-10T08:21:24.297Z,90.40
2019-06-10T08:23:56.754Z,90.40
2019-06-10T08:26:26.299Z,91.00
2019-06-10T08:28:55.670Z,91.20
2019-06-10T08:31:26.095Z,90.70
2019-06-10T08:33:55.439Z,90.50
2019-06-10T08:36:24.927Z,91.00
2019-06-10T08:38:54.245Z,90.40
2019-06-10T08:41:24.717Z,90.60
2019-06-10T08:43:54.136Z,90.80
2019-06-10T08:46:23.555Z,89.90
2019-06-10T08:48:52.890Z,89.50
2019-06-10T08:51:23.890Z,89.00
2019-06-10T08:53:53.441Z,89.40
2019-06-10T08:56:24.306Z,90.60
2019-06-10T08:58:54.097Z,90.50
2019-06-10T09:01:24.842Z,90.50
2019-06-10T09:03:54.234Z,89.60
2019-06-10T09:06:23.690Z,89.50
2019-06-10T09:08:54.655Z,89.70
2019-06-10T09:11:24.480Z,89.00
2019-06-10T09:13:53.801Z,88.30
2019-06-10T09:16:23.436Z,88.80
2019-06-10T09:18:55.298Z,89.00
2019-06-10T09:21:25.294Z,88.90
2019-06-10T09:23:59.735Z,88.50
2019-06-10T09:26:25.747Z,88.40
2019-06-10T09:28:56.610Z,88.80
2019-06-10T09:31:27.126Z,89.80
2019-06-10T09:33:57.160Z,89.30
2019-06-10T09:36:26.683Z,88.40
2019-06-10T09:38:56.013Z,88.10
2019-06-10T09:41:36.285Z,87.30
2019-06-10T09:43:58.467Z,87.40
2019-06-10T09:46:33.131Z,87.30
2019-06-10T09:49:03.082Z,90.10
2019-06-10T09:51:32.640Z,90.20
2019-06-10T09:54:06.583Z,88.50
2019-06-10T09:56:36.091Z,88.20
2019-06-10T09:59:05.953Z,88.40
2019-06-10T10:01:35.314Z,88.30
2019-06-10T10:04:05.191Z,89.30
2019-06-10T10:06:34.634Z,89.40
2019-06-10T10:09:05.759Z,89.80
2019-06-10T10:11:35.186Z,89.90
2019-06-10T10:14:08.386Z,89.40
2019-06-10T10:16:35.887Z,89.80
2019-06-10T10:19:05.647Z,89.80
2019-06-10T10:21:35.155Z,89.90
2019-06-10T10:24:10.524Z,88.90
2019-06-10T10:26:35.903Z,87.60
2019-06-10T10:29:05.423Z,85.90
2019-06-10T10:31:34.797Z,87.10
2019-06-10T10:34:04.119Z,85.90
2019-06-10T10:36:34.453Z,86.30
2019-06-10T10:39:05.313Z,86.40
2019-06-10T10:41:35.883Z,85.20
2019-06-10T10:44:06.012Z,85.90
2019-06-10T10:46:35.415Z,86.70
2019-06-10T10:49:04.871Z,87.30
2019-06-10T10:51:34.755Z,87.00
2019-06-10T10:54:21.197Z,85.60
2019-06-10T10:56:35.663Z,85.20
2019-06-10T10:59:04.969Z,85.60
2019-06-10T11:01:34.824Z,85.20
2019-06-10T11:04:05.085Z,85.30
2019-06-10T11:06:34.438Z,85.00
2019-06-10T11:09:05.454Z,84.60
2019-06-10T11:11:36.396Z,82.90
2019-06-10T11:14:05.831Z,81.30
2019-06-10T11:16:35.255Z,80.10
2019-06-10T11:19:04.780Z,79.60
2019-06-10T11:21:34.116Z,79.30
2019-06-10T11:24:04.829Z,79.40
2019-06-10T11:26:34.279Z,79.20
2019-06-10T11:29:03.846Z,79.90
2019-06-10T11:31:33.158Z,78.80
2019-06-10T11:34:03.182Z,78.50
2019-06-10T11:36:32.837Z,79.50
2019-06-10T11:39:02.944Z,78.90
2019-06-10T11:41:33.675Z,78.50
2019-06-10T11:44:03.078Z,77.60
2019-06-10T11:46:33.193Z,79.10
2019-06-10T11:49:03.874Z,79.20
2019-06-10T11:51:33.516Z,78.90
2019-06-10T11:54:03.426Z,78.50
2019-06-10T11:56:33.739Z,78.90
2019-06-10T11:59:08.921Z,79.50
2019-06-10T12:01:34.244Z,79.40
2019-06-10T12:04:04.288Z,80.50
2019-06-10T12:06:34.138Z,80.80
2019-06-10T12:09:06.688Z,81.00
2019-06-10T12:11:37.243Z,80.90
2019-06-10T12:14:07.195Z,83.10
2019-06-10T12:17:17.490Z,81.90
2019-06-10T12:19:07.595Z,84.10
2019-06-10T12:21:36.910Z,86.60
2019-06-10T12:24:07.711Z,87.20
2019-06-10T12:26:37.093Z,85.00
2019-06-10T12:29:06.536Z,83.80
2019-06-10T12:31:35.971Z,82.20
2019-06-10T12:34:06.077Z,81.90
2019-06-10T12:36:35.774Z,81.50
2019-06-10T12:39:10.942Z,82.70
2019-06-10T12:41:39.058Z,83.20
2019-06-10T12:44:08.580Z,84.70
2019-06-10T12:46:37.898Z,84.80
2019-06-10T12:49:08.772Z,84.30
2019-06-10T12:51:38.444Z,83.50
2019-06-10T12:54:09.017Z,84.90
2019-06-10T12:56:38.398Z,85.20
2019-06-10T12:59:10.007Z,84.70
2019-06-10T13:01:39.024Z,85.20
2019-06-10T13:04:09.588Z,84.90
2019-06-10T13:06:40.338Z,84.20
2019-06-10T13:09:09.819Z,83.90
2019-06-10T13:11:39.238Z,84.10
2019-06-10T13:14:08.682Z,84.40
2019-06-10T13:16:39.139Z,84.00
2019-06-10T13:19:08.449Z,84.40
2019-06-10T13:21:37.870Z,84.50
2019-06-10T13:24:07.886Z,85.20
2019-06-10T13:26:37.429Z,85.30
2019-06-10T13:29:10.040Z,85.20
2019-06-10T13:31:37.893Z,85.00
2019-06-10T13:34:11.317Z,86.10
2019-06-10T13:36:39.594Z,86.30
2019-06-10T13:39:10.475Z,86.50
2019-06-10T13:41:40.070Z,86.10
2019-06-10T13:44:09.377Z,86.30
2019-06-10T13:46:38.696Z,86.00
2019-06-10T13:49:10.734Z,86.10
2019-06-10T13:51:39.371Z,86.70
2019-06-10T13:54:09.642Z,87.50
2019-06-10T13:56:46.970Z,87.30
2019-06-10T13:59:11.858Z,87.40
2019-06-10T14:01:42.786Z,87.50
2019-06-10T14:04:21.225Z,87.70
2019-06-10T14:06:49.801Z,87.80
2019-06-10T14:09:16.604Z,87.40
2019-06-10T14:11:45.882Z,87.50
2019-06-10T14:14:18.137Z,86.90
2019-06-10T14:16:46.281Z,86.60
2019-06-10T14:19:16.321Z,86.60
2019-06-10T14:21:45.900Z,86.30
2019-06-10T14:24:16.104Z,86.20
2019-06-10T14:26:45.953Z,87.10
2019-06-10T14:29:16.004Z,86.60
2019-06-10T14:31:47.976Z,88.70
2019-06-10T14:34:18.662Z,88.30
2019-06-10T14:36:49.443Z,87.80
2019-06-10T14:39:21.993Z,89.50
2019-06-10T14:41:52.273Z,90.30
2019-06-10T14:44:23.475Z,90.40
2019-06-10T14:46:53.104Z,91.30
2019-06-10T14:49:22.575Z,92.00
2019-06-10T14:51:53.837Z,92.10
2019-06-10T14:54:24.334Z,91.60
2019-06-10T14:56:57.278Z,91.30
2019-06-10T14:59:24.883Z,91.50
2019-06-10T15:01:54.242Z,91.00
2019-06-10T15:04:23.597Z,91.90
2019-06-10T15:06:53.755Z,92.30
2019-06-10T15:09:23.412Z,92.10
2019-06-10T15:11:53.768Z,94.00
2019-06-10T15:14:23.441Z,94.50
2019-06-10T15:16:53.394Z,94.40
2019-06-10T15:19:28.571Z,94.80
2019-06-10T15:21:55.265Z,96.50
2019-06-10T15:24:24.594Z,96.50
2019-06-10T15:27:08.879Z,97.60
2019-06-10T15:29:26.987Z,95.80
2019-06-10T15:32:09.290Z,95.30
2019-06-10T15:34:27.317Z,95.20
2019-06-10T15:36:56.695Z,93.20
2019-06-10T15:39:26.010Z,94.40
2019-06-10T15:41:55.442Z,95.20
2019-06-10T15:44:47.947Z,94.90
2019-06-10T15:46:55.828Z,93.40
2019-06-10T15:49:26.220Z,95.20
2019-06-10T15:51:55.641Z,94.70
2019-06-10T15:54:25.511Z,95.50
2019-06-10T15:56:56.707Z,94.40
2019-06-10T15:59:26.161Z,94.50
2019-06-10T16:01:55.733Z,93.20
2019-06-10T16:04:26.440Z,93.50
2019-06-10T16:07:08.534Z,93.20
2019-06-10T16:09:38.075Z,92.10
2019-06-10T16:12:07.499Z,92.10
2019-06-10T16:14:36.943Z,91.50
2019-06-10T16:17:06.391Z,91.00
2019-06-10T16:19:36.732Z,91.30
2019-06-10T16:22:06.150Z,92.30
2019-06-10T16:24:35.863Z,91.80
2019-06-10T16:27:05.261Z,90.60
2019-06-10T16:29:34.563Z,91.70
2019-06-10T16:32:03.868Z,92.40
2019-06-10T16:34:33.216Z,93.80
2019-06-10T16:37:02.543Z,95.50
2019-06-10T16:39:32.587Z,95.10
2019-06-10T16:42:03.039Z,95.10
2019-06-10T16:44:33.061Z,93.80
2019-06-10T16:47:03.275Z,93.30
2019-06-10T16:49:33.038Z,93.40
2019-06-10T16:52:03.015Z,94.10
2019-06-10T16:54:33.141Z,93.90
2019-06-10T16:57:03.742Z,94.20
2019-06-10T16:59:33.669Z,94.60
2019-06-10T17:02:03.078Z,94.30
2019-06-10T17:04:33.143Z,94.40
2019-06-10T17:07:02.636Z,94.90
2019-06-10T17:09:32.815Z,95.80
2019-06-10T17:12:02.467Z,96.00
2019-06-10T17:14:33.568Z,96.20
2019-06-10T17:17:03.651Z,96.20
2019-06-10T17:19:33.509Z,96.20
2019-06-10T17:22:02.959Z,95.90
2019-06-10T17:24:33.852Z,96.50
2019-06-10T17:27:03.601Z,97.30
2019-06-10T17:29:34.691Z,97.80
2019-06-10T17:32:06.802Z,97.60
2019-06-10T17:34:36.128Z,97.50
2019-06-10T17:37:05.594Z,98.30
2019-06-10T17:39:34.942Z,98.30
2019-06-10T17:42:04.610Z,97.50
2019-06-10T17:44:34.060Z,96.20
2019-06-10T17:47:03.594Z,96.80
2019-06-10T17:49:34.708Z,96.90
2019-06-10T17:52:04.300Z,98.10
2019-06-10T17:54:33.716Z,97.20
2019-06-10T17:57:03.178Z,96.50
2019-06-10T17:59:35.327Z,97.80
2019-06-10T18:02:04.520Z,97.30
2019-06-10T18:04:33.964Z,97.70
2019-06-10T18:07:03.321Z,97.60
2019-06-10T18:09:35.416Z,98.10
2019-06-10T18:12:03.875Z,98.30
2019-06-10T18:14:35.823Z,98.30
2019-06-10T18:17:04.596Z,98.30
2019-06-10T18:19:37.055Z,98.30
2019-06-10T18:22:05.196Z,98.30
2019-06-10T18:24:34.828Z,98.30
2019-06-10T18:27:04.358Z,98.30
2019-06-10T18:29:35.797Z,98.30
2019-06-10T18:32:04.760Z,98.30
2019-06-10T18:34:36.220Z,98.30
2019-06-10T18:37:05.106Z,98.30
2019-06-10T18:39:35.430Z,98.30
2019-06-10T18:42:05.093Z,98.30
2019-06-10T18:44:35.812Z,98.30
2019-06-10T18:47:05.555Z,98.30
2019-06-10T18:49:36.207Z,97.40
2019-06-10T18:52:05.912Z,96.90
2019-06-10T18:54:36.997Z,98.20
2019-06-10T18:57:06.474Z,98.30
2019-06-10T18:59:36.688Z,97.80
2019-06-10T19:02:06.950Z,98.30
2019-06-10T19:04:38.187Z,98.10
2019-06-10T19:07:07.515Z,98.20
2019-06-10T19:09:39.174Z,98.30
2019-06-10T19:12:08.205Z,97.60
2019-06-10T19:14:38.316Z,97.50
2019-06-10T19:17:07.877Z,97.70
2019-06-10T19:19:38.225Z,97.90
2019-06-10T19:22:09.351Z,98.30
2019-06-10T19:24:40.134Z,97.60
2019-06-10T19:27:09.991Z,97.30
2019-06-10T19:29:47.029Z,96.50
2019-06-10T19:32:12.573Z,96.80
2019-06-10T19:34:47.247Z,97.20
2019-06-10T19:37:12.931Z,97.80
2019-06-10T19:39:49.390Z,98.10
2019-06-10T19:42:15.809Z,98.30
2019-06-10T19:44:46.032Z,97.90
2019-06-10T19:47:15.559Z,96.20
2019-06-10T19:49:45.081Z,96.60
2019-06-10T19:52:14.582Z,96.90
2019-06-10T19:54:45.413Z,96.00
2019-06-10T19:57:14.973Z,96.30
2019-06-10T20:00:03.789Z,97.50
2019-06-10T20:02:15.535Z,97.70
2019-06-10T20:04:45.666Z,96.00
2019-06-10T20:07:16.159Z,96.60
2019-06-10T20:09:46.358Z,96.60
2019-06-10T20:12:15.830Z,96.90
2019-06-10T20:14:46.085Z,95.20
2019-06-10T20:17:16.193Z,96.80
2019-06-10T20:19:45.996Z,97.70
2019-06-10T20:22:15.481Z,97.40
2019-06-10T20:24:46.708Z,98.30
2019-06-10T20:27:16.019Z,97.60
2019-06-10T20:29:45.802Z,98.30
2019-06-10T20:32:15.137Z,97.10
2019-06-10T20:34:44.728Z,96.40
2019-06-10T20:37:14.032Z,96.40
2019-06-10T20:39:46.028Z,96.90
2019-06-10T20:42:14.516Z,97.30
2019-06-10T20:44:45.918Z,98.30
2019-06-10T20:47:15.997Z,98.30
2019-06-10T20:49:47.483Z,98.30
2019-06-10T20:52:16.642Z,98.30
2019-06-10T20:54:47.874Z,98.30
2019-06-10T20:57:18.332Z,98.30
2019-06-10T20:59:48.559Z,98.30
2019-06-10T21:02:18.698Z,98.30
2019-06-10T21:04:48.525Z,98.30
2019-06-10T21:07:23.157Z,98.30
2019-06-10T21:09:54.185Z,98.20
2019-06-10T21:12:23.570Z,98.00
2019-06-10T21:14:53.275Z,98.30
2019-06-10T21:17:22.942Z,98.30
2019-06-10T21:19:53.697Z,98.30
2019-06-10T21:22:23.340Z,98.30
2019-06-10T21:24:53.576Z,98.30
2019-06-10T21:27:24.103Z,98.20
2019-06-10T21:29:54.762Z,97.50
2019-06-10T21:32:24.281Z,96.00
2019-06-10T21:34:53.968Z,95.80
2019-06-10T21:37:24.391Z,96.00
2019-06-10T21:39:55.386Z,96.20
2019-06-10T21:42:24.707Z,95.80
2019-06-10T21:44:54.039Z,94.90
2019-06-10T21:47:23.567Z,96.40
2019-06-10T21:49:54.489Z,97.00
2019-06-10T21:52:23.934Z,96.90
2019-06-10T21:54:53.274Z,96.60
2019-06-10T21:57:22.601Z,96.20
2019-06-10T21:59:54.977Z,96.50
2019-06-10T22:02:23.247Z,95.90
2019-06-10T22:04:55.182Z,95.80
2019-06-10T22:07:24.347Z,95.70
2019-06-10T22:09:56.090Z,95.10
2019-06-10T22:12:25.751Z,95.30
2019-06-10T22:14:55.123Z,95.70
2019-06-10T22:17:24.424Z,96.40
2019-06-10T22:19:56.483Z,95.90
2019-06-10T22:22:25.881Z,95.50
2019-06-10T22:24:56.545Z,95.30
2019-06-10T22:27:26.072Z,94.90
2019-06-10T22:29:57.098Z,95.60
2019-06-10T22:32:26.555Z,95.20
2019-06-10T22:34:57.136Z,95.10
2019-06-10T22:37:26.698Z,95.20
2019-06-10T22:39:57.863Z,95.50
2019-06-10T22:42:27.317Z,96.50
2019-06-10T22:44:57.988Z,95.60
2019-06-10T22:47:27.575Z,95.30
2019-06-10T22:49:58.433Z,95.60
2019-06-10T22:52:28.558Z,95.50
2019-06-10T22:54:58.736Z,95.90
2019-06-10T22:57:28.402Z,95.50
2019-06-10T22:59:59.287Z,94.70
2019-06-10T23:02:28.762Z,94.30
2019-06-10T23:04:59.896Z,94.10
2019-06-10T23:07:29.186Z,95.30
2019-06-10T23:09:59.060Z,95.00
2019-06-10T23:12:28.470Z,95.10
2019-06-10T23:14:58.098Z,95.30
2019-06-10T23:17:28.982Z,95.90
2019-06-10T23:19:59.639Z,96.80
2019-06-10T23:22:29.172Z,96.60
2019-06-10T23:24:59.819Z,97.00
2019-06-10T23:27:30.155Z,96.30
2019-06-10T23:30:00.847Z,96.80
2019-06-10T23:32:32.706Z,96.00
2019-06-10T23:35:02.591Z,96.60
2019-06-10T23:37:32.236Z,97.00
2019-06-10T23:40:03.933Z,97.10
2019-06-10T23:42:32.764Z,97.30
2019-06-10T23:45:04.850Z,97.70
2019-06-10T23:47:33.108Z,97.40
2019-06-10T23:50:04.342Z,98.30
2019-06-10T23:52:33.589Z,98.30
2019-06-10T23:55:04.613Z,98.30
2019-06-10T23:57:34.035Z,98.30
